Time;durP1;ratioP1;P1;durP2;ratioP2;P2;SDS_P1;SDS_P2;PMS_P1;PMS_P2;Temp;Humidity;BMP_temperature;BMP_pressure;BME280_temperature;BME280_humidity;BME280_pressure;Samples;Min_cycle;Max_cycle;Signal;HPM_P1;HPM_P2
2022/11/29 00:00:38;;;;;;;8.30;5.30;;;;;;;;;;5015276;28;20096;-86
2022/11/29 00:03:04;;;;;;;7.97;5.60;;;;;;;;;;5032946;28;20039;-86
2022/11/29 00:05:29;;;;;;;7.97;5.17;;;;;;;;;;5049316;28;20341;-86
2022/11/29 00:07:54;;;;;;;7.07;4.87;;;;;;;;;;5029873;28;20280;-86
2022/11/29 00:10:19;;;;;;;6.90;4.88;;;;;;;;;;5045302;28;20311;-86
2022/11/29 00:12:48;;;;;;;6.88;4.90;;;;;;;;;;5030727;28;20033;-86
2022/11/29 00:15:13;;;;;;;7.15;4.68;;;;;;;;;;5048346;28;20036;-86
2022/11/29 00:17:38;;;;;;;6.22;4.53;;;;;;;;;;5039176;28;20606;-86
2022/11/29 00:20:04;;;;;;;6.33;4.87;;;;;;;;;;5028265;28;20402;-86
2022/11/29 00:22:29;;;;;;;6.43;4.43;;;;;;;;;;5047197;28;20634;-86
2022/11/29 00:24:54;;;;;;;5.43;3.97;;;;;;;;;;5030118;28;20124;-86
2022/11/29 00:27:19;;;;;;;6.13;4.37;;;;;;;;;;5046151;28;20369;-86
2022/11/29 00:29:45;;;;;;;6.00;4.57;;;;;;;;;;5028380;28;20323;-87
2022/11/29 00:32:10;;;;;;;5.80;4.37;;;;;;;;;;5028978;28;20349;-86
2022/11/29 00:34:36;;;;;;;6.23;4.27;;;;;;;;;;5047295;28;20037;-86
2022/11/29 00:37:01;;;;;;;6.00;4.03;;;;;;;;;;5028861;28;20045;-86
2022/11/29 00:39:26;;;;;;;6.97;4.50;;;;;;;;;;5042969;28;20037;-86
2022/11/29 00:41:51;;;;;;;5.97;4.53;;;;;;;;;;5026655;28;20627;-86
2022/11/29 00:44:16;;;;;;;5.27;4.03;;;;;;;;;;5028210;28;20186;-86
2022/11/29 00:46:42;;;;;;;6.07;4.77;;;;;;;;;;5039861;28;20296;-86
2022/11/29 00:49:07;;;;;;;6.30;4.77;;;;;;;;;;5020630;28;20283;-86
2022/11/29 00:51:32;;;;;;;6.90;4.85;;;;;;;;;;5026002;28;20346;-86
2022/11/29 00:53:57;;;;;;;6.63;4.50;;;;;;;;;;5028904;28;20033;-86
2022/11/29 00:56:22;;;;;;;6.40;4.53;;;;;;;;;;5026475;28;20590;-86
2022/11/29 00:58:48;;;;;;;6.83;4.60;;;;;;;;;;5026200;28;20040;-86
2022/11/29 01:01:13;;;;;;;7.85;4.85;;;;;;;;;;5044555;28;20040;-86
2022/11/29 01:03:38;;;;;;;5.60;4.07;;;;;;;;;;5027669;28;20068;-86
2022/11/29 01:06:08;;;;;;;5.07;3.92;;;;;;;;;;5015933;28;20037;-86
2022/11/29 01:08:33;;;;;;;6.35;4.28;;;;;;;;;;5020411;28;20044;-86
2022/11/29 01:11:05;;;;;;;5.15;4.15;;;;;;;;;;5021275;28;20188;-86
2022/11/29 01:13:31;;;;;;;7.10;4.30;;;;;;;;;;5028199;28;20709;-86
2022/11/29 01:15:56;;;;;;;5.88;4.20;;;;;;;;;;5044569;28;20033;-86
2022/11/29 01:18:21;;;;;;;5.68;4.60;;;;;;;;;;5027414;28;21783;-86
2022/11/29 01:20:54;;;;;;;6.40;4.97;;;;;;;;;;5027955;28;20032;-85
2022/11/29 01:23:19;;;;;;;5.95;4.55;;;;;;;;;;5031391;28;20536;-85
2022/11/29 01:25:44;;;;;;;7.17;4.77;;;;;;;;;;5032961;28;20048;-86
2022/11/29 01:28:09;;;;;;;5.73;4.57;;;;;;;;;;5051148;28;20037;-86
2022/11/29 01:30:36;;;;;;;7.20;4.70;;;;;;;;;;5047393;28;20699;-86
2022/11/29 01:33:01;;;;;;;5.35;4.20;;;;;;;;;;5032030;28;20327;-84
2022/11/29 01:35:26;;;;;;;6.13;4.47;;;;;;;;;;5035854;28;20025;-84
2022/11/29 01:37:51;;;;;;;6.50;4.90;;;;;;;;;;5032966;28;20067;-83
2022/11/29 01:40:17;;;;;;;6.73;4.40;;;;;;;;;;5050536;28;20037;-84
2022/11/29 01:42:42;;;;;;;6.97;4.93;;;;;;;;;;5048944;28;20040;-84
2022/11/29 01:45:22;;;;;;;7.00;4.83;;;;;;;;;;5047502;28;20033;-84
2022/11/29 01:47:48;;;;;;;4.78;3.85;;;;;;;;;;5049999;28;20036;-84
2022/11/29 01:50:13;;;;;;;5.88;3.90;;;;;;;;;;5045353;28;20443;-86
2022/11/29 01:52:38;;;;;;;5.20;3.55;;;;;;;;;;5049084;28;20119;-86
2022/11/29 01:55:06;;;;;;;5.97;3.97;;;;;;;;;;5049488;28;20033;-85
2022/11/29 01:57:32;;;;;;;5.18;3.80;;;;;;;;;;5031456;28;20124;-85
2022/11/29 02:00:01;;;;;;;6.30;3.92;;;;;;;;;;5032860;28;20037;-85
2022/11/29 02:02:29;;;;;;;5.68;3.80;;;;;;;;;;5045692;28;20048;-85
2022/11/29 02:04:56;;;;;;;5.75;4.18;;;;;;;;;;5038841;28;20033;-84
2022/11/29 02:07:21;;;;;;;7.15;4.88;;;;;;;;;;5062163;28;20064;-84
2022/11/29 02:09:46;;;;;;;6.32;4.78;;;;;;;;;;5037593;28;20040;-84
2022/11/29 02:12:24;;;;;;;7.13;4.50;;;;;;;;;;5050190;28;20037;-84
2022/11/29 02:14:55;;;;;;;7.00;4.55;;;;;;;;;;5042896;28;20290;-85
2022/11/29 02:17:29;;;;;;;5.28;3.88;;;;;;;;;;5029529;28;20044;-85
2022/11/29 02:20:07;;;;;;;6.78;4.32;;;;;;;;;;5035148;28;20040;-85
2022/11/29 02:22:44;;;;;;;5.75;3.65;;;;;;;;;;5045185;28;20553;-85
2022/11/29 02:25:25;;;;;;;4.93;3.47;;;;;;;;;;5049838;28;20040;-85
2022/11/29 02:27:53;;;;;;;4.77;3.63;;;;;;;;;;5050958;28;20064;-85
2022/11/29 02:30:34;;;;;;;5.63;4.10;;;;;;;;;;5046900;28;20029;-86
2022/11/29 02:33:03;;;;;;;4.75;3.72;;;;;;;;;;5040963;28;20037;-86
2022/11/29 02:35:46;;;;;;;6.95;3.90;;;;;;;;;;5049484;28;20507;-86
2022/11/29 02:38:24;;;;;;;5.10;3.75;;;;;;;;;;5048521;28;20555;-87
2022/11/29 02:40:58;;;;;;;5.80;3.70;;;;;;;;;;5032131;28;20029;-86
2022/11/29 02:43:42;;;;;;;5.45;3.95;;;;;;;;;;5048153;28;20596;-87
2022/11/29 02:46:40;;;;;;;5.93;4.10;;;;;;;;;;5035143;28;20045;-87
2022/11/29 02:49:17;;;;;;;5.22;3.75;;;;;;;;;;4987929;28;20572;-87
2022/11/29 02:51:50;;;;;;;6.03;4.35;;;;;;;;;;5050086;28;20517;-86
2022/11/29 02:54:32;;;;;;;6.50;4.38;;;;;;;;;;5031314;28;20044;-87
2022/11/29 02:56:57;;;;;;;;;;;;;;;;;;5031068;28;20521;-86
2022/11/29 02:59:36;;;;;;;5.47;3.78;;;;;;;;;;5029287;28;20397;-86
2022/11/29 03:02:01;;;;;;;5.68;4.05;;;;;;;;;;5030909;28;20041;-86
2022/11/29 03:04:36;;;;;;;6.68;4.80;;;;;;;;;;5018795;28;20065;-86
2022/11/29 03:07:09;;;;;;;8.23;5.88;;;;;;;;;;5030071;28;20515;-86
2022/11/29 03:09:47;;;;;;;9.23;6.15;;;;;;;;;;5029778;28;20037;-86
2022/11/29 03:12:18;;;;;;;11.20;7.07;;;;;;;;;;5048844;28;20033;-87
2022/11/29 03:15:09;;;;;;;12.40;8.27;;;;;;;;;;5048901;28;20226;-87
2022/11/29 03:17:53;;;;;;;10.82;7.95;;;;;;;;;;4998759;28;20053;-87
2022/11/29 03:20:28;;;;;;;12.63;8.98;;;;;;;;;;5034333;28;20055;-87
2022/11/29 03:22:59;;;;;;;12.65;9.63;;;;;;;;;;5049576;28;20102;-86
2022/11/29 03:25:24;;;;;;;;;;;;;;;;;;5031797;28;20029;-87
2022/11/29 03:27:54;;;;;;;11.75;8.63;;;;;;;;;;5049372;28;19919;-87
2022/11/29 03:30:20;;;;;;;9.63;7.40;;;;;;;;;;5028235;28;20082;-87
2022/11/29 03:32:51;;;;;;;11.93;8.38;;;;;;;;;;5045910;28;20057;-87
2022/11/29 03:35:20;;;;;;;12.13;8.75;;;;;;;;;;5046238;28;20376;-87
2022/11/29 03:37:48;;;;;;;12.20;8.73;;;;;;;;;;5028181;28;20506;-86
2022/11/29 03:40:16;;;;;;;10.00;8.18;;;;;;;;;;5042115;28;20040;-87
2022/11/29 03:42:48;;;;;;;10.45;7.65;;;;;;;;;;5029063;28;20037;-87
2022/11/29 03:45:17;;;;;;;10.10;7.75;;;;;;;;;;5041558;28;20033;-85
2022/11/29 03:47:49;;;;;;;10.77;7.68;;;;;;;;;;5027130;28;20049;-86
2022/11/29 03:50:27;;;;;;;9.73;6.90;;;;;;;;;;5028147;28;20044;-85
2022/11/29 03:52:54;;;;;;;9.15;7.10;;;;;;;;;;5045104;28;20119;-86
2022/11/29 03:55:19;;;;;;;12.90;8.50;;;;;;;;;;5029597;28;20033;-85
2022/11/29 03:58:11;;;;;;;11.88;8.65;;;;;;;;;;5026619;28;20029;-86
2022/11/29 04:00:48;;;;;;;12.93;9.05;;;;;;;;;;5034467;28;20052;-86
2022/11/29 04:03:26;;;;;;;10.52;7.68;;;;;;;;;;5031601;28;20562;-84
2022/11/29 04:06:09;;;;;;;12.18;8.93;;;;;;;;;;5016385;28;20045;-85
2022/11/29 04:08:40;;;;;;;12.68;8.63;;;;;;;;;;5030185;28;20040;-85
2022/11/29 04:11:20;;;;;;;11.98;8.30;;;;;;;;;;5029914;28;20462;-84
2022/11/29 04:14:12;;;;;;;11.27;8.37;;;;;;;;;;5046893;28;20041;-84
2022/11/29 04:16:47;;;;;;;15.43;10.50;;;;;;;;;;5018758;28;20279;-84
2022/11/29 04:19:15;;;;;;;13.18;8.80;;;;;;;;;;5064003;28;20067;-87
2022/11/29 04:21:40;;;;;;;13.70;8.40;;;;;;;;;;5036285;28;20068;-85
2022/11/29 04:24:05;;;;;;;11.60;7.60;;;;;;;;;;5030834;28;20060;-85
2022/11/29 04:26:46;;;;;;;14.93;9.30;;;;;;;;;;5031108;28;20032;-85
2022/11/29 04:29:20;;;;;;;12.68;8.55;;;;;;;;;;5049481;28;20116;-86
2022/11/29 04:32:18;;;;;;;10.35;7.50;;;;;;;;;;5029523;28;20025;-85
2022/11/29 04:34:59;;;;;;;10.45;6.68;;;;;;;;;;4989168;28;20091;-86
2022/11/29 04:37:36;;;;;;;8.80;5.57;;;;;;;;;;5046726;28;20045;-85
2022/11/29 04:40:22;;;;;;;10.55;7.40;;;;;;;;;;5029824;28;20341;-86
2022/11/29 04:43:02;;;;;;;13.98;8.57;;;;;;;;;;5031478;28;20037;-86
2022/11/29 04:45:46;;;;;;;15.05;9.48;;;;;;;;;;5042847;28;20037;-86
2022/11/29 04:48:14;;;;;;;18.63;11.88;;;;;;;;;;5027051;28;20044;-86
2022/11/29 04:50:46;;;;;;;25.58;14.00;;;;;;;;;;5030133;28;20037;-85
2022/11/29 04:53:31;;;;;;;16.48;11.68;;;;;;;;;;5024653;28;20518;-85
2022/11/29 04:56:11;;;;;;;17.48;10.93;;;;;;;;;;5021563;28;20508;-85
2022/11/29 04:58:50;;;;;;;23.05;13.50;;;;;;;;;;5043742;28;20029;-84
2022/11/29 05:01:19;;;;;;;30.98;15.35;;;;;;;;;;5015069;28;20041;-85
2022/11/29 05:03:53;;;;;;;23.10;13.85;;;;;;;;;;5032629;28;20042;-85
2022/11/29 05:06:23;;;;;;;23.60;13.60;;;;;;;;;;5051064;28;20037;-87
2022/11/29 05:08:58;;;;;;;22.85;12.68;;;;;;;;;;5052973;28;20037;-84
2022/11/29 05:11:43;;;;;;;16.60;11.15;;;;;;;;;;5034748;28;20049;-86
2022/11/29 05:14:14;;;;;;;15.82;10.75;;;;;;;;;;5033381;28;20384;-87
2022/11/29 05:16:39;;;;;;;;;;;;;;;;;;5040504;28;20037;-86
2022/11/29 05:19:28;;;;;;;16.58;10.23;;;;;;;;;;5015268;28;20024;-87
2022/11/29 05:22:05;;;;;;;16.70;9.00;;;;;;;;;;5014090;28;20061;-86
2022/11/29 05:24:43;;;;;;;12.50;8.57;;;;;;;;;;5023247;28;20036;-87
2022/11/29 05:27:15;;;;;;;12.82;7.22;;;;;;;;;;5034271;28;20049;-88
2022/11/29 05:29:56;;;;;;;12.15;7.72;;;;;;;;;;5028561;28;20047;-87
2022/11/29 05:32:37;;;;;;;11.07;7.13;;;;;;;;;;5032357;28;20039;-86
2022/11/29 05:35:22;;;;;;;15.35;10.63;;;;;;;;;;5041501;28;20280;-85
2022/11/29 05:37:47;;;;;;;16.55;9.98;;;;;;;;;;5047424;28;20037;-87
2022/11/29 05:40:12;;;;;;;12.57;8.63;;;;;;;;;;5031936;28;20049;-86
2022/11/29 05:43:00;;;;;;;13.48;8.50;;;;;;;;;;5028582;28;20125;-87
2022/11/29 05:45:29;;;;;;;10.70;7.28;;;;;;;;;;5048231;28;20120;-87
2022/11/29 05:48:18;;;;;;;12.25;7.15;;;;;;;;;;5032726;28;20068;-84
2022/11/29 05:50:49;;;;;;;10.43;6.57;;;;;;;;;;5025866;28;20044;-87
2022/11/29 05:53:14;;;;;;;;;;;;;;;;;;5031469;28;20037;-86
2022/11/29 05:55:46;;;;;;;11.67;7.90;;;;;;;;;;5047899;28;20094;-87
2022/11/29 05:58:11;;;;;;;;;;;;;;;;;;5031410;28;20033;-86
2022/11/29 06:00:42;;;;;;;15.80;10.20;;;;;;;;;;5033247;28;19919;-87
2022/11/29 06:03:07;;;;;;;;;;;;;;;;;;5031729;28;20049;-87
2022/11/29 06:05:48;;;;;;;13.27;8.40;;;;;;;;;;5049583;28;19928;-87
2022/11/29 06:08:13;;;;;;;;;;;;;;;;;;5032517;28;20048;-87
2022/11/29 06:10:42;;;;;;;12.57;8.50;;;;;;;;;;5034076;28;20023;-85
2022/11/29 06:13:28;;;;;;;11.27;7.63;;;;;;;;;;5032692;28;20033;-85
2022/11/29 06:16:02;;;;;;;10.95;6.88;;;;;;;;;;5019807;28;20566;-85
2022/11/29 06:18:37;;;;;;;12.60;7.40;;;;;;;;;;5031370;28;20095;-85
2022/11/29 06:21:21;;;;;;;15.20;9.63;;;;;;;;;;5035064;28;20132;-87
2022/11/29 06:23:47;;;;;;;14.98;9.77;;;;;;;;;;5048995;28;20033;-86
2022/11/29 06:26:28;;;;;;;21.73;11.43;;;;;;;;;;5032526;28;20622;-85
2022/11/29 06:29:32;;;;;;;30.83;16.30;;;;;;;;;;5036896;28;20032;-85
2022/11/29 06:32:15;;;;;;;22.33;13.45;;;;;;;;;;4987439;28;20000;-86
2022/11/29 06:34:43;;;;;;;22.02;13.98;;;;;;;;;;4983595;28;20042;-86
2022/11/29 06:37:24;;;;;;;20.15;12.55;;;;;;;;;;5009917;28;20180;-85
2022/11/29 06:39:49;;;;;;;19.37;11.83;;;;;;;;;;5044452;28;20048;-85
2022/11/29 06:42:14;;;;;;;17.05;10.40;;;;;;;;;;5042025;28;20038;-84
2022/11/29 06:44:40;;;;;;;18.27;11.48;;;;;;;;;;5016493;28;20548;-84
2022/11/29 06:47:11;;;;;;;17.33;11.77;;;;;;;;;;5042910;28;20037;-84
2022/11/29 06:49:56;;;;;;;21.92;13.02;;;;;;;;;;5025104;28;20124;-84
2022/11/29 06:52:33;;;;;;;21.85;13.30;;;;;;;;;;5034099;28;20045;-85
2022/11/29 06:55:02;;;;;;;23.20;13.63;;;;;;;;;;5050158;28;20425;-84
2022/11/29 06:57:30;;;;;;;19.88;12.02;;;;;;;;;;5048763;28;20052;-85
2022/11/29 07:00:07;;;;;;;19.35;11.75;;;;;;;;;;5031302;28;20033;-84
2022/11/29 07:02:34;;;;;;;22.15;11.98;;;;;;;;;;5049236;28;20112;-84
2022/11/29 07:05:14;;;;;;;26.13;11.85;;;;;;;;;;5030570;28;20511;-84
2022/11/29 07:07:40;;;;;;;21.60;11.32;;;;;;;;;;5048368;28;20079;-84
2022/11/29 07:10:05;;;;;;;24.85;12.10;;;;;;;;;;5031069;28;20065;-84
2022/11/29 07:12:31;;;;;;;19.50;11.50;;;;;;;;;;5026962;28;20056;-85
2022/11/29 07:14:56;;;;;;;22.05;11.43;;;;;;;;;;5035632;28;20104;-85
2022/11/29 07:17:29;;;;;;;21.65;11.80;;;;;;;;;;5043683;28;20041;-85
2022/11/29 07:20:06;;;;;;;21.75;12.40;;;;;;;;;;5049410;28;20040;-85
2022/11/29 07:22:38;;;;;;;23.90;13.43;;;;;;;;;;5032816;28;20033;-85
2022/11/29 07:25:03;;;;;;;20.88;12.48;;;;;;;;;;5046234;28;20048;-85
2022/11/29 07:27:35;;;;;;;19.88;11.20;;;;;;;;;;5032004;28;20495;-85
2022/11/29 07:30:00;;;;;;;17.77;11.20;;;;;;;;;;5032047;28;20533;-85
2022/11/29 07:32:26;;;;;;;19.80;12.50;;;;;;;;;;5050537;28;20065;-85
2022/11/29 07:35:03;;;;;;;20.93;13.07;;;;;;;;;;5053163;28;20112;-85
2022/11/29 07:37:38;;;;;;;22.00;12.80;;;;;;;;;;5034097;28;20697;-84
2022/11/29 07:40:36;;;;;;;18.45;11.40;;;;;;;;;;5052020;28;20045;-85
2022/11/29 07:53:36;;;;;;;28.25;17.30;;;;;;;;;;5079638;27;20400;-85
2022/11/29 07:56:01;;;;;;;30.48;16.02;;;;;;;;;;5064495;28;20047;-85
2022/11/29 07:58:26;;;;;;;26.67;15.93;;;;;;;;;;5066753;28;20028;-85
2022/11/29 08:00:51;;;;;;;23.70;15.37;;;;;;;;;;5067399;28;20063;-85
2022/11/29 08:03:16;;;;;;;22.60;14.70;;;;;;;;;;5067031;28;20364;-85
2022/11/29 08:05:44;;;;;;;23.43;14.40;;;;;;;;;;5068056;28;20420;-85
2022/11/29 08:08:09;;;;;;;17.88;11.57;;;;;;;;;;5066081;28;20132;-85
2022/11/29 08:10:35;;;;;;;22.30;13.88;;;;;;;;;;5068719;28;20092;-84
2022/11/29 08:13:00;;;;;;;23.73;15.18;;;;;;;;;;5068110;28;20040;-83
2022/11/29 08:15:26;;;;;;;25.73;16.57;;;;;;;;;;5068338;28;20550;-84
2022/11/29 08:17:52;;;;;;;23.58;16.08;;;;;;;;;;5069294;28;20033;-84
2022/11/29 08:20:17;;;;;;;20.92;13.88;;;;;;;;;;5067244;28;20032;-84
2022/11/29 08:22:42;;;;;;;21.33;13.63;;;;;;;;;;5071489;28;20047;-85
2022/11/29 08:25:08;;;;;;;21.13;14.43;;;;;;;;;;5076751;28;20279;-84
2022/11/29 08:27:34;;;;;;;22.48;14.55;;;;;;;;;;5070522;28;20291;-84
2022/11/29 08:30:00;;;;;;;19.73;13.15;;;;;;;;;;5071689;28;20100;-85
2022/11/29 08:32:25;;;;;;;24.53;15.67;;;;;;;;;;5079593;28;20040;-84
2022/11/29 08:34:50;;;;;;;20.92;14.43;;;;;;;;;;5074478;28;20036;-84
2022/11/29 08:37:15;;;;;;;19.40;13.43;;;;;;;;;;5066821;28;20503;-86
2022/11/29 08:39:42;;;;;;;23.73;16.20;;;;;;;;;;5066812;28;20277;-86
2022/11/29 08:42:07;;;;;;;21.58;14.57;;;;;;;;;;5063669;28;20029;-87
2022/11/29 08:44:32;;;;;;;20.57;13.57;;;;;;;;;;5064624;28;20047;-87
2022/11/29 08:55:18;;;;;;;17.52;12.45;;;;;;;;;;5052094;28;20036;-87
2022/11/29 08:57:44;;;;;;;20.77;14.07;;;;;;;;;;5049561;28;20526;-87
2022/11/29 09:00:09;;;;;;;22.25;14.95;;;;;;;;;;5049071;28;20263;-87
2022/11/29 09:02:35;;;;;;;21.80;15.15;;;;;;;;;;5050564;28;20090;-87
2022/11/29 09:05:01;;;;;;;22.23;15.38;;;;;;;;;;5050902;28;20567;-86
2022/11/29 09:07:26;;;;;;;21.45;14.63;;;;;;;22.38;100.00;120362.75;5049408;28;20037;-86
2022/11/29 09:09:51;;;;;;;24.23;14.40;;;;;;;;;;5049372;28;20522;-86
2022/11/29 09:12:17;;;;;;;19.30;13.37;;;;;;;;;;5049545;28;20069;-87
2022/11/29 09:14:42;;;;;;;26.47;17.70;;;;;;;;;;5049761;28;20241;-87
2022/11/29 09:17:07;;;;;;;25.63;15.87;;;;;;;;;;5051494;28;20033;-86
2022/11/29 09:19:32;;;;;;;23.33;14.87;;;;;;;;;;5050030;28;20037;-87
2022/11/29 09:21:57;;;;;;;27.47;17.07;;;;;;;;;;5049365;28;20402;-87
2022/11/29 09:24:23;;;;;;;23.10;15.50;;;;;;;;;;5048693;28;20271;-87
2022/11/29 09:26:48;;;;;;;23.40;15.27;;;;;;;;;;5048937;28;20032;-87
2022/11/29 09:29:14;;;;;;;21.83;14.48;;;;;;;;;;5048389;28;20526;-87
2022/11/29 09:31:40;;;;;;;24.88;16.20;;;;;;;;;;5049017;28;20052;-87
2022/11/29 09:34:05;;;;;;;21.63;14.43;;;;;;;;;;5050808;28;20056;-87
2022/11/29 09:36:30;;;;;;;19.20;13.13;;;;;;;;;;5049724;28;20036;-87
2022/11/29 09:39:01;;;;;;;20.60;13.43;;;;;;;;;;5048826;28;20293;-87
2022/11/29 09:41:32;;;;;;;16.67;11.90;;;;;;;;;;5039997;28;20052;-87
2022/11/29 09:44:07;;;;;;;23.65;15.30;;;;;;;;;;5048668;28;20152;-87
2022/11/29 09:46:32;;;;;;;21.55;14.10;;;;;;;;;;5049713;28;20071;-87
2022/11/29 09:49:19;;;;;;;18.53;13.23;;;;;;;;;;5048804;28;20484;-87
2022/11/29 09:52:01;;;;;;;16.27;11.35;;;;;;;;;;5043228;28;20037;-87
2022/11/29 09:54:32;;;;;;;15.38;11.63;;;;;;;;;;5049860;28;20057;-87
2022/11/29 09:56:57;;;;;;;13.90;10.02;;;;;;;;;;5049397;28;20383;-87
2022/11/29 09:59:23;;;;;;;13.30;9.23;;;;;;;;;;5047738;28;20105;-87
2022/11/29 10:01:53;;;;;;;13.50;8.98;;;;;;;;;;5049221;28;20120;-87
2022/11/29 10:04:23;;;;;;;10.65;7.68;;;;;;;;;;5047398;28;20478;-87
2022/11/29 10:06:55;;;;;;;13.77;9.68;;;;;;;;;;5047446;28;20029;-87
2022/11/29 10:09:20;;;;;;;;;;;;;;;;;;5048674;28;20508;-87
2022/11/29 10:12:04;;;;;;;12.53;8.77;;;;;;;;;;5048144;28;19919;-87
2022/11/29 10:14:32;;;;;;;14.45;10.15;;;;;;;;;;5047718;28;20036;-87
2022/11/29 10:17:02;;;;;;;16.80;11.80;;;;;;;;;;5042739;28;20041;-87
2022/11/29 10:19:36;;;;;;;12.37;9.20;;;;;;;;;;5041159;28;20470;-87
2022/11/29 10:22:03;;;;;;;13.57;9.10;;;;;;;;;;5048770;28;20404;-87
2022/11/29 10:24:30;;;;;;;15.45;10.02;;;;;;;;;;5048145;28;20044;-86
2022/11/29 10:26:55;;;;;;;15.63;10.65;;;;;;;;;;5047727;28;20033;-87
2022/11/29 10:29:21;;;;;;;13.45;9.52;;;;;;;;;;5051022;28;20132;-87
2022/11/29 10:31:48;;;;;;;18.05;13.30;;;;;;;;;;5048591;28;20048;-87
2022/11/29 10:34:17;;;;;;;18.13;13.68;;;;;;;;;;5046942;28;20063;-87
2022/11/29 10:36:47;;;;;;;18.63;13.50;;;;;;;;;;5046995;28;20036;-87
2022/11/29 10:39:12;;;;;;;19.40;14.00;;;;;;;;;;5047519;28;20029;-87
2022/11/29 10:41:38;;;;;;;19.60;14.37;;;;;;;;;;5047772;28;20502;-87
2022/11/29 10:44:03;;;;;;;17.67;13.20;;;;;;;;;;5048852;28;20041;-87
2022/11/29 10:46:30;;;;;;;16.65;11.40;;;;;;;;;;5046826;28;20280;-87
2022/11/29 10:48:57;;;;;;;16.42;13.38;;;;;;;;;;5048102;28;20071;-87
2022/11/29 10:51:23;;;;;;;18.15;12.95;;;;;;;;;;5047285;28;20117;-87
2022/11/29 10:53:49;;;;;;;14.48;10.90;;;;;;;;;;5047619;28;20116;-86
2022/11/29 10:56:29;;;;;;;13.50;9.73;;;;;;;;;;5047818;28;20032;-87
2022/11/29 10:58:57;;;;;;;13.40;9.98;;;;;;;;;;5047027;28;20063;-87
2022/11/29 11:01:22;;;;;;;14.65;11.20;;;;;;;;;;5047837;28;20308;-86
2022/11/29 11:03:52;;;;;;;18.60;14.07;;;;;;;;;;5046745;28;20516;-86
2022/11/29 11:06:19;;;;;;;14.63;11.55;;;;;;;;;;5042511;28;20037;-87
2022/11/29 11:08:55;;;;;;;18.88;14.18;;;;;;;;;;5045526;28;20037;-87
2022/11/29 11:11:23;;;;;;;18.50;14.90;;;;;;;;;;5045657;28;20471;-87
2022/11/29 11:13:56;;;;;;;16.25;12.13;;;;;;;;;;5045637;28;20029;-87
2022/11/29 11:16:23;;;;;;;16.23;12.90;;;;;;;;;;5045844;28;20216;-87
2022/11/29 11:18:48;;;;;;;17.35;12.93;;;;;;;;;;5046477;28;20397;-87
2022/11/29 11:21:14;;;;;;;14.63;11.03;;;;;;;;;;5047615;28;20033;-87
2022/11/29 11:24:00;;;;;;;16.63;12.20;;;;;;;;;;5046040;28;20296;-87
2022/11/29 11:26:26;;;;;;;12.43;9.63;;;;;;;;;;5038988;28;20393;-87
2022/11/29 11:29:00;;;;;;;12.02;9.30;;;;;;;;;;5046943;28;20124;-87
2022/11/29 11:31:30;;;;;;;15.07;12.05;;;;;;;;;;5047198;28;20285;-87
2022/11/29 11:33:56;;;;;;;15.45;11.43;;;;;;;;;;5046422;28;20397;-87
2022/11/29 11:36:23;;;;;;;14.40;11.40;;;;;;;;;;5046390;28;20045;-87
2022/11/29 11:39:11;;;;;;;15.05;12.50;;;;;;;;;;5047560;28;20055;-87
2022/11/29 11:44:44;;;;;;;17.67;13.75;;;;;;;;;;5046001;28;20478;-87
2022/11/29 11:47:14;;;;;;;16.10;12.70;;;;;;;;;;5045814;28;20067;-87
2022/11/29 11:49:47;;;;;;;16.75;13.27;;;;;;;;;;5047752;28;20120;-87
2022/11/29 11:52:15;;;;;;;18.45;14.48;;;;;;;;;;5047006;28;20033;-87
2022/11/29 11:54:44;;;;;;;21.02;14.63;;;;;;;;;;5046389;28;20029;-88
2022/11/29 11:57:16;;;;;;;15.00;11.73;;;;;;;;;;5045829;28;20419;-87
2022/11/29 11:59:46;;;;;;;13.15;10.65;;;;;;;;;;5039843;28;20033;-87
2022/11/29 12:02:28;;;;;;;11.93;9.00;;;;;;;;;;5046119;28;20115;-87
2022/11/29 12:04:59;;;;;;;12.55;9.98;;;;;;;;;;5045575;28;20037;-87
2022/11/29 12:07:34;;;;;;;13.10;10.07;;;;;;;;;;5045567;28;20166;-87
2022/11/29 12:10:01;;;;;;;15.98;12.00;;;;;;;;;;5046854;28;20044;-86
2022/11/29 12:12:27;;;;;;;16.70;11.98;;;;;;;;;;5046764;28;20690;-87
2022/11/29 12:14:54;;;;;;;14.17;10.63;;;;;;;;;;5044922;28;20044;-87
2022/11/29 12:17:38;;;;;;;14.90;10.88;;;;;;;;;;5044536;28;20519;-87
2022/11/29 12:20:22;;;;;;;12.05;9.80;;;;;;;;;;5043969;28;20403;-87
2022/11/29 12:23:06;;;;;;;16.55;11.75;;;;;;;;;;5045227;28;20044;-87
2022/11/29 12:25:34;;;;;;;20.50;13.30;;;;;;;;;;5045781;28;20033;-87
2022/11/29 12:27:59;;;;;;;16.80;11.45;;;;;;;;;;5045604;28;20341;-87
2022/11/29 12:30:25;;;;;;;18.70;13.93;;;;;;;;;;5049554;28;20515;-87
2022/11/29 12:32:55;;;;;;;18.63;12.48;;;;;;;;;;5049572;28;20090;-87
2022/11/29 12:35:39;;;;;;;19.43;13.80;;;;;;;;;;5050031;28;20571;-87
2022/11/29 12:38:05;;;;;;;16.23;12.65;;;;;;;;;;5051127;28;20295;-87
2022/11/29 12:40:33;;;;;;;15.30;10.70;;;;;;;;;;5052461;28;20492;-86
2022/11/29 12:43:14;;;;;;;20.23;13.02;;;;;;;;;;5052592;28;20033;-86
2022/11/29 12:45:45;;;;;;;16.27;12.53;;;;;;;;;;5050737;28;20573;-87
2022/11/29 12:48:12;;;;;;;;;;;;;;;;;;5052622;28;20272;-86
2022/11/29 12:50:37;;;;;;;15.23;11.88;;;;;;;;;;5050588;28;20334;-87
2022/11/29 12:53:23;;;;;;;17.77;12.40;;;;;;;;;;5052353;28;20037;-88
2022/11/29 12:56:03;;;;;;;18.75;11.38;;;;;;;;;;5051206;28;20091;-87
2022/11/29 12:58:51;;;;;;;16.87;11.57;;;;;;;;;;5061686;28;20037;-87
2022/11/29 13:01:27;;;;;;;20.77;13.80;;;;;;;;;;5021011;28;20383;-86
2022/11/29 13:04:00;;;;;;;18.45;12.57;;;;;;;;;;5050749;28;20575;-86
2022/11/29 13:06:37;;;;;;;19.92;13.25;;;;;;;;;;5050473;28;20065;-86
2022/11/29 13:09:08;;;;;;;22.15;14.88;;;;;;;;;;5050860;28;20400;-86
2022/11/29 13:11:36;;;;;;;22.10;14.43;;;;;;;;;;5050765;28;20041;-87
2022/11/29 13:14:24;;;;;;;17.85;13.18;;;;;;;;;;5051893;28;20170;-87
2022/11/29 13:17:03;;;;;;;22.98;14.15;;;;;;;;;;5052174;28;20455;-88
2022/11/29 13:19:38;;;;;;;25.50;16.60;;;;;;;;;;5052387;28;20044;-87
2022/11/29 13:22:03;;;;;;;29.17;16.80;;;;;;;;;;5050066;28;20068;-86
2022/11/29 13:24:37;;;;;;;28.07;17.70;;;;;;;;;;5049403;28;20462;-87
2022/11/29 13:27:04;;;;;;;27.67;15.75;;;;;;;;;;5049838;28;20288;-87
2022/11/29 13:29:29;;;;;;;21.85;14.43;;;;;;;;;;5051263;28;20071;-87
2022/11/29 13:31:54;;;;;;;24.13;16.40;;;;;;;;;;5050659;28;20403;-87
2022/11/29 13:34:32;;;;;;;33.63;19.77;;;;;;;;;;5048671;28;20595;-87
2022/11/29 13:37:03;;;;;;;34.17;20.08;;;;;;;;;;5049080;28;20049;-87
2022/11/29 13:39:50;;;;;;;34.10;19.85;;;;;;;;;;5048692;28;20466;-87
2022/11/29 13:42:21;;;;;;;31.73;19.25;;;;;;;;;;5048152;28;20060;-87
2022/11/29 13:45:24;;;;;;;33.05;19.80;;;;;;;;;;5049460;28;20264;-87
2022/11/29 13:47:54;;;;;;;30.27;18.45;;;;;;;;;;5007975;28;20117;-87
2022/11/29 13:50:35;;;;;;;33.38;20.63;;;;;;;;;;4990645;28;20529;-87
2022/11/29 13:53:10;;;;;;;42.05;22.13;;;;;;;;;;5023158;28;20037;-87
2022/11/29 13:55:42;;;;;;;33.88;18.85;;;;;;;;;;5047530;28;20099;-86
2022/11/29 13:58:22;;;;;;;38.45;21.35;;;;;;;;;;5049434;28;20384;-86
2022/11/29 14:00:49;;;;;;;46.05;24.27;;;;;;;;;;5051582;28;20040;-86
2022/11/29 14:03:17;;;;;;;42.95;22.35;;;;;;;;;;5051123;28;20040;-87
2022/11/29 14:05:42;;;;;;;46.35;23.45;;;;;;;;;;5050670;28;20036;-86
2022/11/29 14:08:29;;;;;;;47.13;24.00;;;;;;;;;;5052337;28;20090;-88
2022/11/29 14:10:56;;;;;;;45.88;25.10;;;;;;;;;;5052071;28;20037;-86
2022/11/29 14:13:25;;;;;;;41.25;23.40;;;;;;;;;;5052216;28;20037;-86
2022/11/29 14:15:57;;;;;;;45.40;23.27;;;;;;;;;;5050286;28;20424;-86
2022/11/29 14:18:41;;;;;;;38.13;21.35;;;;;;;;;;5051543;28;20095;-87
2022/11/29 14:21:06;;;;;;;34.47;19.17;;;;;;;;;;5052356;28;20325;-86
2022/11/29 14:23:36;;;;;;;39.53;22.40;;;;;;;;;;5050751;28;20097;-86
2022/11/29 14:26:01;;;;;;;48.78;26.70;;;;;;;;;;5051675;28;20341;-86
2022/11/29 14:28:31;;;;;;;50.70;27.08;;;;;;;;;;5051708;28;20037;-87
2022/11/29 14:30:57;;;;;;;48.95;25.52;;;;;;;;;;5051320;28;20036;-86
2022/11/29 14:33:27;;;;;;;46.35;26.10;;;;;;;;;;5050382;28;20029;-86
2022/11/29 14:36:16;;;;;;;42.00;25.13;;;;;;;;;;5051445;28;20029;-87
2022/11/29 14:38:48;;;;;;;50.03;24.33;;;;;;;;;;5052942;28;20400;-87
2022/11/29 14:41:32;;;;;;;38.72;22.85;;;;;;;;;;5050484;28;20627;-86
2022/11/29 14:44:14;;;;;;;45.25;24.40;;;;;;;;;;5052066;28;20128;-86
2022/11/29 14:46:39;;;;;;;44.63;24.33;;;;;;;;;;5050056;28;20434;-86
2022/11/29 14:49:05;;;;;;;42.53;24.20;;;;;;;;;;5050860;28;20063;-87
2022/11/29 14:51:33;;;;;;;46.20;25.33;;;;;;;;;;5051008;28;20382;-86
2022/11/29 14:54:01;;;;;;;50.58;27.40;;;;;;;;;;5052205;28;20408;-87
2022/11/29 14:56:30;;;;;;;52.58;26.80;;;;;;;;;;5050603;28;20094;-87
2022/11/29 14:59:14;;;;;;;52.83;26.20;;;;;;;;;;5049369;28;20056;-87
2022/11/29 15:01:43;;;;;;;48.63;25.33;;;;;;;;;;5048897;28;20250;-86
2022/11/29 15:04:09;;;;;;;50.28;26.08;;;;;;;;;;5048395;28;20091;-87
2022/11/29 15:06:35;;;;;;;44.78;24.60;;;;;;;;;;5047564;28;20037;-87
2022/11/29 15:09:05;;;;;;;36.17;20.83;;;;;;;;;;5049217;28;20036;-87
2022/11/29 15:11:33;;;;;;;40.15;23.67;;;;;;;;;;5048769;28;20044;-87
2022/11/29 15:14:03;;;;;;;42.50;23.02;;;;;;;;;;5046892;28;20041;-87